Onward, Indiana
Current Conditions -  °F | °C
As of 2:58 AM on Sunday 26 Oct 2014 (Local Time) from KGUS Reporting Station
Clear Clear  
Wind Chill: 44°   Ceiling: Unl
Heat Index: 48°   Visibility: 10mi
Dew Point: 36°   Wind: 7mph
Humidity: 63%   Direction: 300°WNW
Pressure: 29.96"   Gusts: NA
Location:  40.69°N, 86.19°W
Report Text: KGUS 260658Z AUTO 30006KT 10SM CLR 09/02 A2996 RMK AO2 SLP148 T00870020
Loading
Personal Weather Stations






























Interactive Weather Map
Tropical Storm Tracking
New forecast layout! Learn more

10-Day Weather Forecast

Advertisements
Track Severe Weather on mobile